Time;durP1;ratioP1;P1;durP2;ratioP2;P2;SDS_P1;SDS_P2;PMS_P1;PMS_P2;Temp;Humidity;BMP_temperature;BMP_pressure;BME280_temperature;BME280_humidity;BME280_pressure;Samples;Min_cycle;Max_cycle;Signal;HPM_P1;HPM_P2
2022/01/08 00:00:50;;;;;;;7.00;2.40;;;7.90;99.90;;;;;;5102364;27;20215;-66
2022/01/08 00:03:21;;;;;;;6.82;2.70;;;7.80;99.90;;;;;;5104339;28;20211;-66
2022/01/08 00:05:56;;;;;;;5.18;2.30;;;7.80;99.90;;;;;;5104042;28;20307;-66
2022/01/08 00:08:27;;;;;;;7.70;2.22;;;7.80;99.90;;;;;;5108711;28;20327;-66
2022/01/08 00:10:58;;;;;;;7.50;2.70;;;7.70;99.90;;;;;;5100687;28;20230;-65
2022/01/08 00:13:29;;;;;;;9.07;1.95;;;7.70;99.90;;;;;;5106874;28;20226;-65
2022/01/08 00:16:01;;;;;;;9.73;2.33;;;7.60;99.90;;;;;;5104816;28;20208;-65
2022/01/08 00:18:32;;;;;;;7.72;3.28;;;7.50;99.90;;;;;;5108759;28;20704;-65
2022/01/08 00:21:03;;;;;;;7.60;3.60;;;7.50;99.90;;;;;;5102880;28;20793;-64
2022/01/08 00:23:34;;;;;;;6.85;3.00;;;7.50;99.90;;;;;;5102331;28;20211;-65
2022/01/08 00:26:06;;;;;;;6.90;2.35;;;7.50;99.90;;;;;;5105377;28;20220;-65
2022/01/08 00:28:37;;;;;;;12.90;3.03;;;7.40;99.90;;;;;;5105851;28;20303;-64
2022/01/08 00:31:10;;;;;;;12.57;2.67;;;7.40;99.90;;;;;;5102277;28;20208;-63
2022/01/08 00:33:41;;;;;;;9.43;2.30;;;7.40;99.90;;;;;;5109846;27;20224;-64
2022/01/08 00:36:12;;;;;;;8.77;2.42;;;7.40;99.90;;;;;;5111532;27;20207;-64
2022/01/08 00:38:43;;;;;;;11.32;3.40;;;7.50;99.90;;;;;;5104489;28;20226;-66
2022/01/08 00:41:14;;;;;;;14.80;3.38;;;7.50;99.90;;;;;;5105534;27;20208;-64
2022/01/08 00:43:44;;;;;;;5.45;2.63;;;7.50;99.90;;;;;;5099430;27;20204;-64
2022/01/08 00:46:17;;;;;;;7.93;2.92;;;7.50;99.90;;;;;;5102704;28;20565;-64
2022/01/08 00:48:48;;;;;;;10.13;3.05;;;7.50;99.90;;;;;;5102904;28;20218;-64
2022/01/08 00:51:21;;;;;;;5.22;2.50;;;7.50;99.90;;;;;;5109474;27;20208;-64
2022/01/08 00:53:52;;;;;;;11.63;3.40;;;7.50;99.90;;;;;;5104596;28;20224;-65
2022/01/08 00:56:23;;;;;;;5.57;2.50;;;7.40;99.90;;;;;;5103562;28;20220;-64
2022/01/08 00:58:54;;;;;;;6.40;2.92;;;7.50;99.90;;;;;;5111196;27;20208;-64
2022/01/08 01:01:27;;;;;;;6.07;3.15;;;7.40;99.90;;;;;;5101245;28;20211;-65
2022/01/08 01:03:57;;;;;;;6.93;2.90;;;7.30;99.90;;;;;;5104414;28;20220;-63
2022/01/08 01:06:28;;;;;;;5.60;2.75;;;7.40;99.90;;;;;;5100910;28;20240;-64
2022/01/08 01:08:59;;;;;;;6.25;2.67;;;7.30;99.90;;;;;;5100284;28;20235;-65
2022/01/08 01:11:30;;;;;;;7.72;3.88;;;7.20;99.90;;;;;;5102552;28;20334;-64
2022/01/08 01:14:01;;;;;;;6.82;2.40;;;7.30;99.90;;;;;;5093296;27;21395;-63
2022/01/08 01:16:34;;;;;;;4.38;2.05;;;7.30;99.90;;;;;;5091802;27;20215;-64
2022/01/08 01:19:04;;;;;;;6.97;2.10;;;7.30;99.90;;;;;;5107922;27;21204;-64
2022/01/08 01:21:35;;;;;;;8.65;4.03;;;7.20;99.90;;;;;;5104576;28;20654;-64
2022/01/08 01:24:12;;;;;;;11.63;3.05;;;7.10;99.90;;;;;;5106939;28;20294;-62
2022/01/08 01:27:01;;;;;;;9.10;2.75;;;7.10;99.90;;;;;;5104368;28;20219;-62
2022/01/08 01:29:39;;;;;;;5.30;2.30;;;7.00;99.90;;;;;;5093236;28;21604;-64
2022/01/08 01:43:37;;;;;;;7.13;2.70;;;7.10;99.90;;;;;;5103903;27;20216;-62
2022/01/08 01:48:57;;;;;;;13.32;2.95;;;7.20;99.90;;;;;;5103191;28;20226;-62
2022/01/08 01:51:28;;;;;;;7.00;2.58;;;7.10;99.90;;;;;;5103976;28;20223;-61
2022/01/08 01:53:59;;;;;;;5.47;3.38;;;7.10;99.90;;;;;;5104975;27;20242;-61
2022/01/08 01:56:30;;;;;;;4.65;2.42;;;7.10;99.90;;;;;;5104943;28;20659;-65
2022/01/08 01:59:01;;;;;;;6.43;2.53;;;7.20;99.90;;;;;;5096251;28;20273;-64
2022/01/08 02:01:33;;;;;;;8.90;3.78;;;7.10;99.90;;;;;;5101220;28;20222;-67
2022/01/08 02:04:06;;;;;;;11.70;3.70;;;7.20;99.90;;;;;;5112388;27;20204;-68
2022/01/08 02:06:36;;;;;;;5.68;2.53;;;7.20;99.90;;;;;;5103114;27;20211;-66
2022/01/08 02:09:08;;;;;;;6.07;2.20;;;7.30;99.90;;;;;;5114411;27;20308;-66
2022/01/08 02:11:56;;;;;;;10.32;2.90;;;7.20;99.90;;;;;;5109220;28;20222;-66
2022/01/08 02:14:28;;;;;;;9.68;2.88;;;7.30;99.90;;;;;;5102105;27;20226;-67
2022/01/08 02:16:59;;;;;;;6.90;2.40;;;7.20;99.90;;;;;;5099468;27;20214;-65
2022/01/08 02:19:31;;;;;;;8.25;2.47;;;7.20;99.90;;;;;;5106877;27;20635;-62
2022/01/08 02:22:06;;;;;;;13.55;2.38;;;7.20;99.90;;;;;;5106803;27;20218;-61
2022/01/08 02:24:37;;;;;;;7.50;2.90;;;7.20;99.90;;;;;;5113512;27;20495;-61
2022/01/08 02:27:08;;;;;;;8.43;2.30;;;7.10;99.90;;;;;;5103343;27;20211;-61
2022/01/08 02:29:39;;;;;;;11.18;4.35;;;7.10;99.90;;;;;;5108362;27;20216;-61
2022/01/08 02:32:12;;;;;;;9.05;3.25;;;7.10;99.90;;;;;;5105243;27;20655;-61
2022/01/08 02:34:44;;;;;;;7.50;3.03;;;7.10;99.90;;;;;;5098770;28;20293;-66
2022/01/08 02:37:18;;;;;;;2.95;2.20;;;7.10;99.90;;;;;;5100922;28;20663;-65
2022/01/08 02:39:50;;;;;;;5.22;3.00;;;7.10;99.90;;;;;;5093905;28;20648;-67
2022/01/08 02:42:20;;;;;;;10.43;3.00;;;7.00;99.90;;;;;;5094595;28;20208;-66
2022/01/08 02:44:51;;;;;;;8.85;2.80;;;7.00;99.90;;;;;;5106122;28;20562;-67
2022/01/08 02:47:23;;;;;;;6.15;2.78;;;7.00;99.90;;;;;;5105065;28;20212;-62
2022/01/08 02:49:54;;;;;;;11.05;2.78;;;7.10;99.90;;;;;;5091009;28;20212;-63
2022/01/08 02:52:27;;;;;;;7.22;3.25;;;7.00;99.90;;;;;;5105258;28;20208;-61
2022/01/08 02:54:58;;;;;;;4.32;3.30;;;7.10;99.90;;;;;;5097259;28;20219;-61
2022/01/08 02:57:32;;;;;;;4.13;2.65;;;7.20;99.90;;;;;;5101709;28;20211;-61
2022/01/08 03:00:02;;;;;;;11.38;3.25;;;7.20;99.90;;;;;;5099996;28;20211;-61
2022/01/08 03:02:33;;;;;;;4.85;2.33;;;7.10;99.90;;;;;;5105513;28;20207;-61
2022/01/08 03:05:07;;;;;;;6.85;2.60;;;7.00;99.90;;;;;;5103181;28;21005;-61
2022/01/08 03:07:40;;;;;;;4.88;2.88;;;6.90;99.90;;;;;;5102480;28;20234;-61
2022/01/08 03:10:13;;;;;;;7.10;3.08;;;6.90;99.90;;;;;;5104500;28;20220;-61
2022/01/08 03:12:45;;;;;;;5.85;2.75;;;6.80;99.90;;;;;;5099681;28;20215;-61
2022/01/08 03:15:17;;;;;;;11.60;2.95;;;6.90;99.90;;;;;;5097131;28;20231;-61
2022/01/08 03:17:48;;;;;;;7.18;2.92;;;7.00;99.90;;;;;;5101733;28;20235;-62
2022/01/08 03:20:19;;;;;;;9.73;3.08;;;7.00;99.90;;;;;;5098467;28;20250;-62
2022/01/08 03:23:00;;;;;;;7.05;3.70;;;6.90;99.90;;;;;;5105117;28;20219;-63
2022/01/08 03:25:33;;;;;;;5.03;3.33;;;6.90;99.90;;;;;;5104684;28;20574;-63
2022/01/08 03:28:06;;;;;;;11.05;7.80;;;6.90;99.90;;;;;;5102517;28;20698;-64
2022/01/08 03:30:39;;;;;;;8.50;4.60;;;7.00;99.90;;;;;;5102945;28;20214;-63
2022/01/08 03:33:10;;;;;;;7.60;4.35;;;7.00;99.90;;;;;;5103031;28;20667;-62
2022/01/08 03:35:41;;;;;;;11.80;3.70;;;7.00;99.90;;;;;;5100216;28;20314;-63
2022/01/08 03:38:13;;;;;;;10.00;3.65;;;7.00;99.90;;;;;;5099271;28;20232;-63
2022/01/08 03:40:44;;;;;;;7.35;3.58;;;6.90;99.90;;;;;;5107181;28;20230;-63
2022/01/08 03:43:15;;;;;;;7.30;3.20;;;6.90;99.90;;;;;;5098598;28;20215;-63
2022/01/08 03:45:46;;;;;;;9.45;3.90;;;6.80;99.90;;;;;;5107761;28;20244;-64
2022/01/08 03:48:27;;;;;;;5.78;3.05;;;6.70;99.90;;;;;;5107503;28;20212;-64
2022/01/08 03:50:59;;;;;;;10.38;3.65;;;6.70;99.90;;;;;;5104879;28;20222;-63
2022/01/08 03:53:31;;;;;;;13.23;3.78;;;6.50;99.90;;;;;;5104043;28;20204;-64
2022/01/08 03:56:02;;;;;;;7.85;3.42;;;6.50;99.90;;;;;;5103515;28;20215;-63
2022/01/08 03:58:33;;;;;;;7.03;3.15;;;6.60;99.90;;;;;;5099607;28;20211;-63
2022/01/08 04:01:04;;;;;;;9.88;2.92;;;6.70;99.90;;;;;;5097724;28;20677;-64
2022/01/08 04:03:35;;;;;;;11.32;3.92;;;6.70;99.90;;;;;;5103709;28;20271;-63
2022/01/08 04:06:06;;;;;;;7.78;3.53;;;6.70;99.90;;;;;;5109265;28;20647;-63
2022/01/08 04:08:38;;;;;;;8.40;3.67;;;6.70;99.90;;;;;;5108951;28;20234;-62
2022/01/08 04:11:09;;;;;;;7.07;2.60;;;6.80;99.90;;;;;;5107944;28;20227;-63
2022/01/08 04:13:42;;;;;;;10.68;3.92;;;6.80;99.90;;;;;;5095874;28;20208;-64
2022/01/08 04:16:17;;;;;;;8.88;4.20;;;6.80;99.90;;;;;;5106838;28;20219;-63
2022/01/08 04:18:48;;;;;;;8.95;3.80;;;6.80;99.90;;;;;;5105538;28;20226;-63
2022/01/08 04:21:58;;;;;;;15.25;3.60;;;6.70;99.90;;;;;;5102935;28;20222;-63
2022/01/08 04:24:20;;;;;;;9.05;4.10;;;6.60;99.90;;;;;;5109508;28;20212;-64
2022/01/08 04:26:51;;;;;;;11.30;4.38;;;6.70;99.90;;;;;;5109110;28;20215;-64
2022/01/08 04:29:22;;;;;;;11.20;4.45;;;6.70;99.90;;;;;;5110115;28;20223;-61
2022/01/08 04:31:53;;;;;;;10.02;4.38;;;6.60;99.90;;;;;;5105553;28;20218;-61
2022/01/08 04:34:24;;;;;;;11.52;5.03;;;6.70;99.90;;;;;;5109262;28;20584;-61
2022/01/08 04:36:55;;;;;;;10.80;4.63;;;6.70;99.90;;;;;;5097347;28;20310;-61
2022/01/08 04:39:28;;;;;;;11.15;4.60;;;6.80;99.90;;;;;;5100511;28;20312;-62
2022/01/08 04:41:59;;;;;;;9.75;4.70;;;6.80;99.90;;;;;;5110859;28;20314;-62
2022/01/08 04:44:29;;;;;;;7.03;4.90;;;6.80;99.90;;;;;;5107539;28;20225;-63
2022/01/08 04:47:00;;;;;;;9.90;3.97;;;6.80;99.90;;;;;;5105601;28;20271;-63
2022/01/08 04:49:31;;;;;;;10.63;4.35;;;6.80;99.90;;;;;;5109535;28;20208;-62
2022/01/08 04:52:02;;;;;;;11.10;4.57;;;6.70;99.90;;;;;;5104289;28;20215;-62
2022/01/08 04:54:35;;;;;;;15.90;5.82;;;6.70;99.90;;;;;;5100597;28;20205;-62
2022/01/08 04:57:06;;;;;;;14.07;5.97;;;6.60;99.90;;;;;;5106504;28;20208;-62
2022/01/08 04:59:37;;;;;;;12.77;5.03;;;6.70;99.90;;;;;;5106360;28;20211;-63
2022/01/08 05:02:08;;;;;;;14.05;4.50;;;6.70;99.90;;;;;;5109093;28;20218;-62
2022/01/08 05:04:39;;;;;;;6.88;3.97;;;6.60;99.90;;;;;;5100980;28;20248;-62
2022/01/08 05:07:10;;;;;;;9.90;4.20;;;6.50;99.90;;;;;;5108682;28;20216;-62
2022/01/08 05:09:43;;;;;;;10.48;4.13;;;6.50;99.90;;;;;;5104779;28;20242;-62
2022/01/08 05:12:14;;;;;;;7.45;3.67;;;6.50;99.90;;;;;;5110203;28;20562;-63
2022/01/08 05:14:45;;;;;;;6.35;3.60;;;6.40;99.90;;;;;;5100331;28;20219;-64
2022/01/08 05:17:16;;;;;;;11.45;4.15;;;6.40;99.90;;;;;;5107358;28;20231;-64
2022/01/08 05:19:50;;;;;;;7.15;4.10;;;6.40;99.90;;;;;;5107153;28;20743;-64
2022/01/08 05:22:24;;;;;;;7.35;4.80;;;6.30;99.90;;;;;;5109913;28;20212;-63
2022/01/08 05:24:57;;;;;;;9.05;4.10;;;6.30;99.90;;;;;;5107722;28;20580;-62
2022/01/08 05:27:28;;;;;;;5.22;3.30;;;6.30;99.90;;;;;;5107382;28;20230;-62
2022/01/08 05:29:59;;;;;;;7.20;4.38;;;6.20;99.90;;;;;;5105169;28;20212;-64
2022/01/08 05:32:30;;;;;;;7.07;3.22;;;6.30;99.90;;;;;;5109303;28;20712;-64
2022/01/08 05:35:01;;;;;;;3.70;2.80;;;6.40;99.90;;;;;;5093521;28;20282;-63
2022/01/08 05:37:32;;;;;;;7.05;2.63;;;6.40;99.90;;;;;;5109125;28;20564;-62
2022/01/08 05:40:05;;;;;;;8.05;3.53;;;6.40;99.90;;;;;;5102597;28;20207;-64
2022/01/08 05:42:36;;;;;;;7.07;2.65;;;6.30;99.90;;;;;;5105505;28;20212;-64
2022/01/08 05:45:08;;;;;;;4.55;3.20;;;6.40;99.90;;;;;;5106041;28;20207;-64
2022/01/08 05:47:39;;;;;;;6.07;3.28;;;6.50;99.90;;;;;;5098374;28;20644;-64
2022/01/08 05:50:11;;;;;;;7.40;3.30;;;6.40;99.90;;;;;;5108382;28;20284;-64
2022/01/08 05:52:42;;;;;;;5.80;2.25;;;6.40;99.90;;;;;;5100768;28;20231;-63
2022/01/08 05:55:15;;;;;;;5.20;2.90;;;6.50;99.90;;;;;;5105453;28;20258;-63
2022/01/08 05:57:46;;;;;;;6.57;3.35;;;6.40;99.90;;;;;;5100929;28;20241;-62
2022/01/08 06:00:17;;;;;;;6.60;3.80;;;6.40;99.90;;;;;;5102329;28;20923;-63
2022/01/08 06:02:48;;;;;;;9.05;3.65;;;6.30;99.90;;;;;;5105612;28;20215;-62
2022/01/08 06:05:19;;;;;;;7.00;4.05;;;6.40;99.90;;;;;;5107311;28;20233;-63
2022/01/08 06:07:50;;;;;;;5.80;3.70;;;6.30;99.90;;;;;;5108160;28;20235;-64
2022/01/08 06:10:23;;;;;;;3.95;2.65;;;6.30;99.90;;;;;;5102241;28;20204;-64
2022/01/08 06:12:53;;;;;;;5.43;3.00;;;6.30;99.90;;;;;;5099664;28;20234;-64
2022/01/08 06:15:24;;;;;;;5.60;3.05;;;6.30;99.90;;;;;;5101522;28;20232;-69
2022/01/08 06:17:56;;;;;;;4.70;2.38;;;6.30;99.90;;;;;;5100293;28;20207;-66
2022/01/08 06:20:27;;;;;;;5.65;2.35;;;6.30;99.90;;;;;;5104963;28;20651;-66
2022/01/08 06:23:01;;;;;;;5.75;2.88;;;6.20;99.90;;;;;;5107796;28;20691;-67
2022/01/08 06:25:34;;;;;;;5.13;2.17;;;6.20;99.90;;;;;;5102183;28;20210;-66
2022/01/08 06:28:05;;;;;;;4.88;2.60;;;6.20;99.90;;;;;;5105737;28;20535;-66
2022/01/08 06:30:36;;;;;;;9.40;2.33;;;6.20;99.90;;;;;;5101440;28;20617;-66
2022/01/08 06:33:07;;;;;;;8.98;2.45;;;6.20;99.90;;;;;;5103672;28;20361;-66
2022/01/08 06:35:38;;;;;;;6.60;2.80;;;6.20;99.90;;;;;;5100556;28;20265;-67
2022/01/08 06:38:08;;;;;;;3.40;1.85;;;6.20;99.90;;;;;;5106245;28;20697;-66
2022/01/08 06:40:41;;;;;;;4.25;2.55;;;6.20;99.90;;;;;;5101755;28;20204;-66
2022/01/08 06:43:12;;;;;;;6.47;2.25;;;6.10;99.90;;;;;;5106576;28;20211;-66
2022/01/08 06:45:43;;;;;;;6.05;3.08;;;6.20;99.90;;;;;;5103921;28;20524;-67
2022/01/08 06:48:14;;;;;;;5.18;3.20;;;6.20;99.90;;;;;;5101529;28;20395;-67
2022/01/08 06:50:44;;;;;;;5.55;2.45;;;6.20;99.90;;;;;;5095314;28;20214;-67
2022/01/08 06:53:15;;;;;;;8.77;3.08;;;6.20;99.90;;;;;;5106175;28;20292;-66
2022/01/08 06:55:48;;;;;;;8.52;2.78;;;6.30;99.90;;;;;;5106268;28;20239;-67
2022/01/08 06:58:20;;;;;;;9.32;2.47;;;6.30;99.90;;;;;;5106336;28;20215;-68
2022/01/08 07:00:51;;;;;;;5.93;2.50;;;6.30;99.90;;;;;;5105554;28;20238;-68
2022/01/08 07:03:22;;;;;;;4.53;2.80;;;6.20;99.90;;;;;;5106706;28;20320;-67
2022/01/08 07:05:52;;;;;;;5.85;2.95;;;6.20;99.90;;;;;;5108722;28;20214;-66
2022/01/08 07:08:23;;;;;;;9.75;4.10;;;6.30;99.90;;;;;;5096269;28;20232;-66
2022/01/08 07:10:56;;;;;;;4.90;2.60;;;6.20;99.90;;;;;;5104361;28;20317;-67
2022/01/08 07:13:27;;;;;;;6.75;2.72;;;6.20;99.90;;;;;;5107805;28;20536;-66
2022/01/08 07:15:57;;;;;;;6.50;2.25;;;6.20;99.90;;;;;;5102760;28;20219;-67
2022/01/08 07:18:28;;;;;;;10.05;2.90;;;6.20;99.90;;;;;;5104701;28;20216;-67
2022/01/08 07:20:59;;;;;;;4.65;2.60;;;6.10;99.90;;;;;;5108115;28;20228;-67
2022/01/08 07:23:30;;;;;;;8.65;3.03;;;6.10;99.90;;;;;;5103966;28;20571;-67
2022/01/08 07:26:03;;;;;;;6.00;2.30;;;6.20;99.90;;;;;;5107197;28;20204;-67
2022/01/08 07:28:34;;;;;;;7.47;2.40;;;6.20;99.90;;;;;;5106334;28;20246;-68
2022/01/08 07:31:04;;;;;;;8.35;2.40;;;6.30;99.90;;;;;;5105219;28;20642;-67
2022/01/08 07:33:35;;;;;;;6.45;2.58;;;6.30;99.90;;;;;;5099179;28;20600;-68
2022/01/08 07:36:06;;;;;;;6.82;3.30;;;6.30;99.90;;;;;;5105884;28;20223;-67
2022/01/08 07:38:37;;;;;;;8.60;2.85;;;6.30;99.90;;;;;;5107703;28;20219;-66
2022/01/08 07:41:10;;;;;;;5.55;2.90;;;6.40;99.90;;;;;;5087924;28;20308;-67
2022/01/08 07:43:41;;;;;;;7.28;3.67;;;6.40;99.90;;;;;;5107681;28;20222;-66
2022/01/08 07:46:12;;;;;;;4.70;2.60;;;6.30;99.90;;;;;;5107054;28;20204;-67
2022/01/08 07:48:43;;;;;;;5.05;2.45;;;6.30;99.90;;;;;;5106003;28;20212;-66
2022/01/08 07:51:14;;;;;;;3.05;2.58;;;6.30;99.90;;;;;;5108494;28;20216;-66
2022/01/08 07:53:45;;;;;;;9.57;2.90;;;6.30;99.90;;;;;;5094103;28;20208;-67
2022/01/08 07:56:17;;;;;;;9.65;2.90;;;6.30;99.90;;;;;;5105434;28;20231;-67
2022/01/08 07:58:48;;;;;;;6.82;2.40;;;6.30;99.90;;;;;;5110500;28;20228;-67
2022/01/08 08:01:24;;;;;;;6.85;2.72;;;6.20;99.90;;;;;;5099021;28;20220;-66
2022/01/08 08:03:55;;;;;;;4.32;2.80;;;6.10;99.90;;;;;;5106895;28;20637;-66
2022/01/08 08:06:26;;;;;;;5.20;2.42;;;6.10;99.90;;;;;;5105505;28;20208;-67
2022/01/08 08:08:57;;;;;;;7.40;2.55;;;6.10;99.90;;;;;;5107394;28;20257;-66
2022/01/08 08:11:29;;;;;;;5.80;2.35;;;6.20;99.90;;;;;;5106570;28;20222;-66
2022/01/08 08:14:00;;;;;;;4.22;2.50;;;6.30;99.90;;;;;;5107714;28;20220;-66
2022/01/08 08:16:31;;;;;;;5.75;3.08;;;6.30;99.90;;;;;;5105637;28;20234;-66
2022/01/08 08:19:02;;;;;;;8.35;2.38;;;6.20;99.90;;;;;;5104585;28;20295;-66
2022/01/08 08:21:33;;;;;;;4.10;2.50;;;6.30;99.90;;;;;;5108352;28;20208;-67
2022/01/08 08:24:05;;;;;;;5.30;1.92;;;6.20;99.90;;;;;;5108875;28;20608;-66
2022/01/08 08:26:39;;;;;;;9.45;3.70;;;6.20;99.90;;;;;;5108938;28;20211;-66
2022/01/08 08:29:10;;;;;;;5.38;2.65;;;6.20;99.90;;;;;;5103851;28;20226;-66
2022/01/08 08:31:41;;;;;;;4.93;2.03;;;6.20;99.90;;;;;;5100630;28;20218;-66
2022/01/08 08:34:12;;;;;;;7.18;2.60;;;6.20;99.90;;;;;;5105799;28;20212;-66
2022/01/08 08:36:43;;;;;;;6.13;2.47;;;6.30;99.90;;;;;;5104157;28;20243;-65
2022/01/08 08:39:14;;;;;;;5.60;2.33;;;6.30;99.90;;;;;;5102234;28;20212;-66
2022/01/08 08:41:46;;;;;;;7.55;2.15;;;6.30;99.90;;;;;;5100588;28;20215;-66
2022/01/08 08:44:17;;;;;;;5.15;2.63;;;6.30;99.90;;;;;;5103149;28;20219;-66
2022/01/08 08:46:48;;;;;;;9.95;2.90;;;6.20;99.90;;;;;;5101693;28;20204;-66
2022/01/08 08:49:19;;;;;;;6.95;3.40;;;6.30;99.90;;;;;;5110059;28;20294;-66
2022/01/08 08:51:50;;;;;;;10.48;2.55;;;6.20;99.90;;;;;;5107313;28;20212;-66
2022/01/08 08:54:21;;;;;;;11.35;3.00;;;6.20;99.90;;;;;;5101571;28;20754;-67
2022/01/08 08:56:53;;;;;;;6.60;2.83;;;6.10;99.90;;;;;;5108032;27;20228;-66
2022/01/08 08:59:24;;;;;;;9.95;3.55;;;6.20;99.90;;;;;;5105647;28;20214;-67
2022/01/08 09:01:56;;;;;;;5.78;3.00;;;6.20;99.90;;;;;;5107142;28;20215;-65
2022/01/08 09:04:27;;;;;;;9.77;2.35;;;6.20;99.90;;;;;;5100071;28;20216;-66
2022/01/08 09:06:58;;;;;;;8.93;2.83;;;6.20;99.90;;;;;;5104412;28;20200;-65
2022/01/08 09:09:29;;;;;;;4.90;3.05;;;6.20;99.90;;;;;;5103304;28;20785;-66
2022/01/08 09:12:01;;;;;;;7.47;3.10;;;6.10;99.90;;;;;;5107476;28;20209;-67
2022/01/08 09:14:32;;;;;;;7.07;2.90;;;6.10;99.90;;;;;;5106711;28;20208;-67
2022/01/08 09:17:05;;;;;;;7.80;3.35;;;6.20;99.90;;;;;;5105597;28;20653;-67
2022/01/08 09:19:36;;;;;;;9.30;3.55;;;6.20;99.90;;;;;;5104432;28;20658;-66
2022/01/08 09:22:07;;;;;;;7.78;2.97;;;6.20;99.90;;;;;;5103354;28;20216;-66
2022/01/08 09:24:38;;;;;;;7.05;3.10;;;6.20;99.90;;;;;;5107883;28;20216;-67
2022/01/08 09:27:11;;;;;;;4.85;2.75;;;6.30;99.90;;;;;;5101451;28;20212;-67
2022/01/08 09:29:42;;;;;;;8.00;3.67;;;6.20;99.90;;;;;;5099804;28;20226;-66
2022/01/08 09:32:13;;;;;;;9.73;2.63;;;6.30;99.90;;;;;;5108377;28;20624;-66
2022/01/08 09:34:44;;;;;;;8.48;2.80;;;6.30;99.90;;;;;;5096064;28;20287;-65
2022/01/08 09:37:15;;;;;;;3.60;2.63;;;6.30;99.90;;;;;;5106026;28;20640;-66
2022/01/08 09:39:46;;;;;;;7.65;2.92;;;6.30;99.90;;;;;;5094282;28;20216;-67
2022/01/08 09:42:18;;;;;;;6.60;2.50;;;6.20;99.90;;;;;;5108883;28;20220;-67
2022/01/08 09:44:49;;;;;;;9.82;3.08;;;6.20;99.90;;;;;;5105651;28;20222;-67
2022/01/08 09:47:20;;;;;;;7.18;2.78;;;6.20;99.90;;;;;;5104239;28;20208;-66
2022/01/08 09:49:51;;;;;;;7.18;2.80;;;6.30;99.90;;;;;;5107288;28;20207;-66
2022/01/08 09:52:22;;;;;;;4.53;2.20;;;6.20;99.90;;;;;;5107665;28;20616;-67
2022/01/08 09:54:52;;;;;;;11.25;3.70;;;6.10;99.90;;;;;;5097286;28;20238;-66
2022/01/08 09:57:25;;;;;;;6.32;2.38;;;6.20;99.90;;;;;;5101955;28;20219;-67
2022/01/08 09:59:56;;;;;;;6.95;2.75;;;6.30;99.90;;;;;;5105129;28;20230;-67
2022/01/08 10:02:27;;;;;;;7.25;2.47;;;6.30;99.90;;;;;;5104097;28;20218;-67
2022/01/08 10:05:10;;;;;;;7.63;2.42;;;6.20;99.90;;;;;;5104995;28;20295;-67
2022/01/08 10:07:42;;;;;;;3.70;2.45;;;6.30;99.90;;;;;;5102104;28;20208;-67
2022/01/08 10:10:15;;;;;;;7.53;2.75;;;6.30;99.90;;;;;;5094352;28;20218;-66
2022/01/08 10:12:52;;;;;;;7.88;2.55;;;6.30;99.90;;;;;;5096353;28;20223;-66
2022/01/08 10:18:24;;;;;;;9.40;2.35;;;6.10;99.90;;;;;;5098934;28;20235;-66
2022/01/08 10:20:56;;;;;;;6.55;2.83;;;6.10;99.90;;;;;;5105560;28;20203;-66
2022/01/08 10:23:28;;;;;;;7.18;2.70;;;6.10;99.90;;;;;;5106202;27;20219;-68
2022/01/08 10:26:02;;;;;;;9.75;2.10;;;6.10;99.90;;;;;;5108148;28;20219;-69
2022/01/08 10:28:43;;;;;;;7.00;2.78;;;6.20;99.90;;;;;;5105425;28;20219;-69
2022/01/08 10:31:17;;;;;;;5.68;2.17;;;6.30;99.90;;;;;;5104288;28;20288;-64
2022/01/08 10:33:49;;;;;;;4.18;2.38;;;6.20;99.90;;;;;;5106888;28;20552;-65
2022/01/08 10:36:26;;;;;;;5.95;2.60;;;6.20;99.90;;;;;;5100757;28;20218;-64
2022/01/08 10:38:59;;;;;;;4.18;2.47;;;6.20;99.90;;;;;;5103743;28;20229;-64
2022/01/08 10:41:31;;;;;;;6.10;2.38;;;6.20;99.90;;;;;;5105403;28;20297;-65
2022/01/08 10:44:14;;;;;;;3.22;2.00;;;6.20;99.90;;;;;;5095175;28;20214;-65
2022/01/08 10:46:57;;;;;;;3.35;2.25;;;6.30;99.90;;;;;;5103638;28;20555;-65
2022/01/08 10:49:33;;;;;;;5.07;2.17;;;6.30;99.90;;;;;;5097485;28;20255;-65
2022/01/08 10:52:05;;;;;;;5.60;2.20;;;6.30;99.90;;;;;;5103992;28;20215;-65
2022/01/08 10:54:37;;;;;;;5.25;1.80;;;6.30;99.90;;;;;;5107500;28;20211;-65
2022/01/08 10:57:11;;;;;;;6.75;1.95;;;6.30;99.90;;;;;;5109255;28;20231;-65
2022/01/08 10:59:45;;;;;;;5.55;2.42;;;6.30;99.90;;;;;;5097756;28;20224;-65
2022/01/08 11:02:16;;;;;;;9.15;2.17;;;6.30;99.90;;;;;;5103960;28;20381;-65
2022/01/08 11:04:50;;;;;;;5.32;2.15;;;6.30;99.90;;;;;;5105029;28;20219;-65
2022/01/08 11:07:23;;;;;;;5.03;1.90;;;6.30;99.90;;;;;;5101144;28;20675;-64
2022/01/08 11:09:55;;;;;;;7.18;2.83;;;6.30;99.90;;;;;;5099077;28;20544;-65
2022/01/08 11:12:31;;;;;;;7.05;2.17;;;6.30;99.90;;;;;;5102240;28;20231;-65
2022/01/08 11:15:24;;;;;;;4.22;1.75;;;6.20;99.90;;;;;;5105576;28;20211;-65
2022/01/08 11:17:56;;;;;;;4.75;2.13;;;6.30;99.90;;;;;;5102450;28;20286;-65
2022/01/08 11:20:48;;;;;;;7.10;2.45;;;6.20;99.90;;;;;;5111254;28;20285;-65
2022/01/08 11:23:23;;;;;;;8.35;2.83;;;6.30;99.90;;;;;;5105252;28;20218;-66
2022/01/08 11:25:56;;;;;;;4.63;2.53;;;6.20;99.90;;;;;;5093994;28;20211;-66
2022/01/08 11:28:35;;;;;;;5.85;2.42;;;6.20;99.90;;;;;;5110952;27;20695;-65
2022/01/08 11:31:11;;;;;;;6.57;1.85;;;6.20;99.90;;;;;;5103325;28;20223;-66
2022/01/08 11:33:49;;;;;;;6.90;2.83;;;6.20;99.90;;;;;;5103184;28;20220;-66
2022/01/08 11:36:20;;;;;;;3.53;2.00;;;6.30;99.90;;;;;;5106263;28;20219;-66
2022/01/08 11:38:52;;;;;;;5.18;2.00;;;6.30;99.90;;;;;;5102948;28;20220;-65
2022/01/08 11:41:23;;;;;;;7.80;2.45;;;6.20;99.90;;;;;;5100800;28;20709;-65
2022/01/08 11:43:57;;;;;;;7.25;2.70;;;6.10;99.90;;;;;;5109956;28;20705;-65
2022/01/08 11:46:30;;;;;;;7.97;2.20;;;6.20;99.90;;;;;;5102169;28;20207;-66
2022/01/08 11:49:01;;;;;;;3.92;2.40;;;6.10;99.90;;;;;;5109755;28;20204;-65
2022/01/08 11:51:33;;;;;;;6.18;2.40;;;6.10;99.90;;;;;;5112408;28;20695;-66
2022/01/08 11:54:06;;;;;;;5.20;3.05;;;6.20;99.90;;;;;;5108989;28;20215;-65
2022/01/08 11:56:38;;;;;;;5.82;2.45;;;6.20;99.90;;;;;;5108902;28;20230;-65
2022/01/08 11:59:10;;;;;;;4.35;2.00;;;6.10;99.90;;;;;;5109538;28;20227;-66
2022/01/08 12:01:46;;;;;;;3.40;2.10;;;6.00;99.90;;;;;;5107900;28;20214;-65
2022/01/08 12:04:32;;;;;;;4.43;2.40;;;6.00;99.90;;;;;;5106620;28;20930;-66
2022/01/08 12:07:26;;;;;;;5.63;2.65;;;5.90;99.90;;;;;;5098777;28;20307;-65
2022/01/08 12:10:11;;;;;;;3.58;2.13;;;5.90;99.90;;;;;;5105589;28;20606;-65
2022/01/08 12:12:54;;;;;;;2.97;2.53;;;5.80;99.90;;;;;;5110430;28;20216;-65
2022/01/08 12:15:48;;;;;;;8.52;2.20;;;5.80;99.90;;;;;;5105857;28;20209;-65
2022/01/08 12:18:27;;;;;;;4.80;2.05;;;5.80;99.90;;;;;;5107664;28;20291;-65
2022/01/08 12:20:58;;;;;;;8.60;2.72;;;5.80;99.90;;;;;;5107411;28;20207;-65
2022/01/08 12:23:31;;;;;;;3.88;1.88;;;5.80;99.90;;;;;;5109747;28;20700;-65
2022/01/08 12:26:05;;;;;;;10.02;2.20;;;5.80;99.90;;;;;;5093682;28;20526;-65
2022/01/08 12:28:59;;;;;;;2.10;2.00;;;5.80;99.90;;;;;;5106558;28;20330;-65
2022/01/08 12:31:37;;;;;;;3.72;2.55;;;5.80;99.90;;;;;;5101741;28;20203;-65
2022/01/08 12:34:37;;;;;;;2.88;2.25;;;5.80;99.90;;;;;;5109424;28;20666;-65
2022/01/08 12:37:11;;;;;;;5.88;2.88;;;5.70;99.90;;;;;;5109046;28;20313;-65
2022/01/08 12:39:54;;;;;;;6.13;2.05;;;5.80;99.90;;;;;;5108084;28;20278;-64
2022/01/08 12:42:41;;;;;;;5.50;2.60;;;5.80;99.90;;;;;;5105879;28;20624;-65
2022/01/08 12:45:20;;;;;;;3.90;2.38;;;5.90;99.90;;;;;;5106981;28;20564;-65
2022/01/08 12:47:57;;;;;;;4.53;2.53;;;5.90;99.90;;;;;;5105044;28;20211;-65
2022/01/08 12:50:32;;;;;;;6.30;1.85;;;5.90;99.90;;;;;;5107810;28;20229;-66
2022/01/08 12:53:14;;;;;;;6.90;2.88;;;5.90;99.90;;;;;;5108160;28;20216;-68
2022/01/08 12:56:02;;;;;;;4.45;3.00;;;5.90;99.90;;;;;;5104264;28;20203;-67
2022/01/08 12:58:34;;;;;;;8.05;2.50;;;5.90;99.90;;;;;;5105367;28;20211;-66
2022/01/08 13:01:08;;;;;;;3.53;2.00;;;6.00;99.90;;;;;;5102737;28;20381;-67
2022/01/08 13:03:40;;;;;;;5.03;2.60;;;6.00;99.90;;;;;;5098466;28;20582;-66
2022/01/08 13:06:28;;;;;;;10.25;2.47;;;6.00;99.90;;;;;;5101828;28;20231;-66
2022/01/08 13:08:59;;;;;;;6.72;2.35;;;6.00;99.90;;;;;;5098226;28;20228;-67
2022/01/08 13:11:34;;;;;;;6.65;3.17;;;6.00;99.90;;;;;;5102835;28;20208;-67
2022/01/08 13:14:07;;;;;;;4.97;2.55;;;6.00;99.90;;;;;;5101602;28;20801;-67
2022/01/08 13:16:41;;;;;;;2.05;1.85;;;6.10;99.90;;;;;;5086347;28;20347;-67
2022/01/08 13:19:14;;;;;;;4.50;2.00;;;6.10;99.90;;;;;;5099939;28;20219;-67
2022/01/08 13:21:50;;;;;;;5.28;1.80;;;6.20;99.90;;;;;;5103032;28;20234;-67
2022/01/08 13:24:23;;;;;;;3.65;2.10;;;6.10;99.90;;;;;;5105586;28;20211;-67
2022/01/08 13:26:57;;;;;;;3.60;1.50;;;6.10;99.90;;;;;;5106568;28;20208;-67
2022/01/08 13:29:29;;;;;;;3.30;1.95;;;6.00;99.90;;;;;;5102372;28;20208;-67
2022/01/08 13:32:02;;;;;;;3.88;1.50;;;6.10;99.90;;;;;;5090967;28;20208;-67
2022/01/08 13:34:35;;;;;;;3.10;1.98;;;6.10;99.90;;;;;;5107769;28;20215;-67
2022/01/08 13:37:10;;;;;;;4.30;2.03;;;6.00;99.90;;;;;;5107650;28;20698;-67
2022/01/08 13:39:43;;;;;;;7.32;1.77;;;6.10;99.90;;;;;;5103986;28;20227;-67
2022/01/08 13:42:22;;;;;;;3.38;1.50;;;6.00;99.90;;;;;;5101246;28;20215;-67